sensor_id;sensor_type;location;lat;lon;timestamp;P1;durP1;ratioP1;P2;durP2;ratioP2
41677;SDS011;27364;49.026;8.712;2023-03-24T00:00:39;5.82;;;3.20;;
41677;SDS011;27364;49.026;8.712;2023-03-24T00:03:05;4.72;;;3.15;;
41677;SDS011;27364;49.026;8.712;2023-03-24T00:05:31;7.18;;;3.28;;
41677;SDS011;27364;49.026;8.712;2023-03-24T00:07:57;3.30;;;2.45;;
41677;SDS011;27364;49.026;8.712;2023-03-24T00:10:27;4.80;;;3.15;;
41677;SDS011;27364;49.026;8.712;2023-03-24T00:12:54;4.93;;;3.53;;
41677;SDS011;27364;49.026;8.712;2023-03-24T00:17:48;4.78;;;3.35;;
41677;SDS011;27364;49.026;8.712;2023-03-24T00:20:15;5.18;;;3.50;;
41677;SDS011;27364;49.026;8.712;2023-03-24T00:22:43;4.93;;;3.28;;
41677;SDS011;27364;49.026;8.712;2023-03-24T00:25:15;5.47;;;3.40;;
41677;SDS011;27364;49.026;8.712;2023-03-24T00:27:42;4.60;;;3.15;;
41677;SDS011;27364;49.026;8.712;2023-03-24T00:30:12;4.47;;;3.10;;
41677;SDS011;27364;49.026;8.712;2023-03-24T00:32:39;5.22;;;3.38;;
41677;SDS011;27364;49.026;8.712;2023-03-24T00:35:05;6.55;;;3.60;;
41677;SDS011;27364;49.026;8.712;2023-03-24T00:37:33;5.93;;;3.78;;
41677;SDS011;27364;49.026;8.712;2023-03-24T00:40:01;5.30;;;3.40;;
41677;SDS011;27364;49.026;8.712;2023-03-24T00:42:31;5.22;;;2.75;;
41677;SDS011;27364;49.026;8.712;2023-03-24T00:44:58;5.75;;;3.30;;
41677;SDS011;27364;49.026;8.712;2023-03-24T00:47:23;5.30;;;2.97;;
41677;SDS011;27364;49.026;8.712;2023-03-24T00:49:50;5.82;;;3.30;;
41677;SDS011;27364;49.026;8.712;2023-03-24T00:52:18;4.47;;;2.80;;
41677;SDS011;27364;49.026;8.712;2023-03-24T00:54:47;5.03;;;3.17;;
41677;SDS011;27364;49.026;8.712;2023-03-24T00:57:14;4.65;;;2.67;;
41677;SDS011;27364;49.026;8.712;2023-03-24T00:59:48;3.60;;;2.50;;
41677;SDS011;27364;49.026;8.712;2023-03-24T01:02:15;5.50;;;3.30;;
41677;SDS011;27364;49.026;8.712;2023-03-24T01:04:46;4.85;;;3.08;;
41677;SDS011;27364;49.026;8.712;2023-03-24T01:07:13;4.25;;;2.70;;
41677;SDS011;27364;49.026;8.712;2023-03-24T01:09:42;4.50;;;2.60;;
41677;SDS011;27364;49.026;8.712;2023-03-24T01:12:15;5.43;;;3.22;;
41677;SDS011;27364;49.026;8.712;2023-03-24T01:14:43;5.05;;;2.90;;
41677;SDS011;27364;49.026;8.712;2023-03-24T01:17:09;4.63;;;2.70;;
41677;SDS011;27364;49.026;8.712;2023-03-24T01:19:34;5.68;;;2.67;;
41677;SDS011;27364;49.026;8.712;2023-03-24T01:22:00;3.72;;;2.53;;
41677;SDS011;27364;49.026;8.712;2023-03-24T01:24:26;4.65;;;2.85;;
41677;SDS011;27364;49.026;8.712;2023-03-24T01:26:52;4.82;;;3.03;;
41677;SDS011;27364;49.026;8.712;2023-03-24T01:29:17;5.78;;;3.13;;
41677;SDS011;27364;49.026;8.712;2023-03-24T01:31:43;5.18;;;2.58;;
41677;SDS011;27364;49.026;8.712;2023-03-24T01:34:08;5.68;;;2.90;;
41677;SDS011;27364;49.026;8.712;2023-03-24T01:36:34;5.88;;;2.90;;
41677;SDS011;27364;49.026;8.712;2023-03-24T01:38:59;4.43;;;2.97;;
41677;SDS011;27364;49.026;8.712;2023-03-24T01:41:26;5.50;;;2.80;;
41677;SDS011;27364;49.026;8.712;2023-03-24T01:43:54;5.43;;;2.60;;
41677;SDS011;27364;49.026;8.712;2023-03-24T01:46:20;4.53;;;2.72;;
41677;SDS011;27364;49.026;8.712;2023-03-24T01:48:51;4.53;;;2.70;;
41677;SDS011;27364;49.026;8.712;2023-03-24T01:54:01;5.45;;;2.80;;
41677;SDS011;27364;49.026;8.712;2023-03-24T01:56:31;5.10;;;2.60;;
41677;SDS011;27364;49.026;8.712;2023-03-24T01:59:01;4.05;;;2.40;;
41677;SDS011;27364;49.026;8.712;2023-03-24T02:01:31;4.32;;;2.55;;
41677;SDS011;27364;49.026;8.712;2023-03-24T02:03:56;4.03;;;2.53;;
41677;SDS011;27364;49.026;8.712;2023-03-24T02:06:24;4.80;;;2.40;;
41677;SDS011;27364;49.026;8.712;2023-03-24T02:08:52;3.65;;;2.40;;
41677;SDS011;27364;49.026;8.712;2023-03-24T02:11:20;4.05;;;2.42;;
41677;SDS011;27364;49.026;8.712;2023-03-24T02:13:48;3.80;;;2.45;;
41677;SDS011;27364;49.026;8.712;2023-03-24T02:19:04;3.13;;;2.17;;
41677;SDS011;27364;49.026;8.712;2023-03-24T02:39:10;3.85;;;2.28;;
41677;SDS011;27364;49.026;8.712;2023-03-24T02:41:59;3.47;;;2.25;;
41677;SDS011;27364;49.026;8.712;2023-03-24T02:47:35;3.85;;;2.20;;
41677;SDS011;27364;49.026;8.712;2023-03-24T02:50:21;3.10;;;2.20;;
41677;SDS011;27364;49.026;8.712;2023-03-24T02:53:12;3.08;;;2.20;;
41677;SDS011;27364;49.026;8.712;2023-03-24T02:55:57;3.60;;;2.20;;
41677;SDS011;27364;49.026;8.712;2023-03-24T02:58:34;4.38;;;2.30;;
41677;SDS011;27364;49.026;8.712;2023-03-24T03:01:05;3.97;;;2.30;;
41677;SDS011;27364;49.026;8.712;2023-03-24T03:03:44;3.10;;;2.10;;
41677;SDS011;27364;49.026;8.712;2023-03-24T03:06:19;3.75;;;2.28;;
41677;SDS011;27364;49.026;8.712;2023-03-24T03:08:51;3.40;;;2.33;;
41677;SDS011;27364;49.026;8.712;2023-03-24T03:11:19;3.22;;;2.00;;
41677;SDS011;27364;49.026;8.712;2023-03-24T03:13:53;3.17;;;2.17;;
41677;SDS011;27364;49.026;8.712;2023-03-24T03:16:38;4.95;;;2.40;;
41677;SDS011;27364;49.026;8.712;2023-03-24T03:19:25;3.35;;;2.10;;
41677;SDS011;27364;49.026;8.712;2023-03-24T03:21:57;3.90;;;2.30;;
41677;SDS011;27364;49.026;8.712;2023-03-24T03:24:26;3.53;;;2.33;;
41677;SDS011;27364;49.026;8.712;2023-03-24T03:27:02;3.95;;;2.33;;
41677;SDS011;27364;49.026;8.712;2023-03-24T03:29:34;4.13;;;2.30;;
41677;SDS011;27364;49.026;8.712;2023-03-24T03:32:04;3.33;;;2.20;;
41677;SDS011;27364;49.026;8.712;2023-03-24T03:34:41;4.18;;;2.40;;
41677;SDS011;27364;49.026;8.712;2023-03-24T03:37:17;4.05;;;2.50;;
41677;SDS011;27364;49.026;8.712;2023-03-24T03:39:53;3.33;;;2.35;;
41677;SDS011;27364;49.026;8.712;2023-03-24T03:42:21;3.60;;;2.38;;
41677;SDS011;27364;49.026;8.712;2023-03-24T03:44:47;4.70;;;2.40;;
41677;SDS011;27364;49.026;8.712;2023-03-24T03:47:13;4.85;;;2.55;;
41677;SDS011;27364;49.026;8.712;2023-03-24T03:49:40;3.88;;;2.40;;
41677;SDS011;27364;49.026;8.712;2023-03-24T03:52:06;4.30;;;2.60;;
41677;SDS011;27364;49.026;8.712;2023-03-24T03:54:32;4.15;;;2.60;;
41677;SDS011;27364;49.026;8.712;2023-03-24T03:56:59;4.00;;;2.53;;
41677;SDS011;27364;49.026;8.712;2023-03-24T03:59:33;4.80;;;2.83;;
41677;SDS011;27364;49.026;8.712;2023-03-24T04:02:02;4.90;;;2.70;;
41677;SDS011;27364;49.026;8.712;2023-03-24T04:07:33;3.70;;;2.60;;
41677;SDS011;27364;49.026;8.712;2023-03-24T04:16:04;4.45;;;2.80;;
41677;SDS011;27364;49.026;8.712;2023-03-24T04:24:55;3.55;;;2.55;;
41677;SDS011;27364;49.026;8.712;2023-03-24T04:32:40;5.05;;;2.97;;
41677;SDS011;27364;49.026;8.712;2023-03-24T04:35:15;7.63;;;2.80;;
41677;SDS011;27364;49.026;8.712;2023-03-24T04:37:56;5.95;;;2.80;;
41677;SDS011;27364;49.026;8.712;2023-03-24T04:40:33;4.03;;;2.67;;
41677;SDS011;27364;49.026;8.712;2023-03-24T04:43:04;5.50;;;3.08;;
41677;SDS011;27364;49.026;8.712;2023-03-24T04:45:32;5.18;;;3.30;;
41677;SDS011;27364;49.026;8.712;2023-03-24T04:48:01;4.15;;;3.35;;
41677;SDS011;27364;49.026;8.712;2023-03-24T04:53:00;5.05;;;3.47;;
41677;SDS011;27364;49.026;8.712;2023-03-24T04:55:50;7.03;;;4.18;;
41677;SDS011;27364;49.026;8.712;2023-03-24T04:58:22;7.57;;;4.85;;
41677;SDS011;27364;49.026;8.712;2023-03-24T05:00:49;6.25;;;4.88;;
41677;SDS011;27364;49.026;8.712;2023-03-24T05:03:15;6.57;;;5.03;;
41677;SDS011;27364;49.026;8.712;2023-03-24T05:05:42;6.70;;;5.32;;
41677;SDS011;27364;49.026;8.712;2023-03-24T05:08:09;7.40;;;5.45;;
41677;SDS011;27364;49.026;8.712;2023-03-24T05:10:35;7.80;;;5.50;;
41677;SDS011;27364;49.026;8.712;2023-03-24T05:13:02;6.85;;;5.38;;
41677;SDS011;27364;49.026;8.712;2023-03-24T05:15:31;7.35;;;5.03;;
41677;SDS011;27364;49.026;8.712;2023-03-24T05:17:57;6.10;;;4.90;;
41677;SDS011;27364;49.026;8.712;2023-03-24T05:20:25;7.75;;;4.85;;
41677;SDS011;27364;49.026;8.712;2023-03-24T05:25:16;6.20;;;4.88;;
41677;SDS011;27364;49.026;8.712;2023-03-24T05:27:43;6.25;;;5.03;;
41677;SDS011;27364;49.026;8.712;2023-03-24T05:30:09;5.20;;;4.47;;
41677;SDS011;27364;49.026;8.712;2023-03-24T05:32:35;6.05;;;4.93;;
41677;SDS011;27364;49.026;8.712;2023-03-24T05:35:01;5.20;;;4.50;;
41677;SDS011;27364;49.026;8.712;2023-03-24T05:37:27;6.05;;;4.82;;
41677;SDS011;27364;49.026;8.712;2023-03-24T05:39:52;6.40;;;4.68;;
41677;SDS011;27364;49.026;8.712;2023-03-24T05:42:18;6.25;;;4.70;;
41677;SDS011;27364;49.026;8.712;2023-03-24T05:44:44;6.35;;;5.20;;
41677;SDS011;27364;49.026;8.712;2023-03-24T05:47:10;7.75;;;5.18;;
41677;SDS011;27364;49.026;8.712;2023-03-24T05:49:40;7.53;;;4.75;;
41677;SDS011;27364;49.026;8.712;2023-03-24T05:52:09;6.75;;;4.93;;
41677;SDS011;27364;49.026;8.712;2023-03-24T05:54:36;9.73;;;5.20;;
41677;SDS011;27364;49.026;8.712;2023-03-24T05:57:03;6.50;;;4.90;;
41677;SDS011;27364;49.026;8.712;2023-03-24T05:59:33;5.93;;;4.97;;
41677;SDS011;27364;49.026;8.712;2023-03-24T06:01:59;7.03;;;5.45;;
41677;SDS011;27364;49.026;8.712;2023-03-24T06:04:24;7.18;;;5.28;;
41677;SDS011;27364;49.026;8.712;2023-03-24T06:06:54;7.10;;;5.75;;
41677;SDS011;27364;49.026;8.712;2023-03-24T06:09:24;6.82;;;5.28;;
41677;SDS011;27364;49.026;8.712;2023-03-24T06:11:54;7.43;;;5.68;;
41677;SDS011;27364;49.026;8.712;2023-03-24T06:14:20;7.43;;;5.60;;
41677;SDS011;27364;49.026;8.712;2023-03-24T06:16:46;6.18;;;5.28;;
41677;SDS011;27364;49.026;8.712;2023-03-24T06:19:14;6.25;;;5.20;;
41677;SDS011;27364;49.026;8.712;2023-03-24T06:21:41;6.82;;;5.30;;
41677;SDS011;27364;49.026;8.712;2023-03-24T06:24:08;7.32;;;5.47;;
41677;SDS011;27364;49.026;8.712;2023-03-24T06:26:34;6.38;;;5.28;;
41677;SDS011;27364;49.026;8.712;2023-03-24T06:29:00;7.07;;;5.82;;
41677;SDS011;27364;49.026;8.712;2023-03-24T06:31:26;5.47;;;4.88;;
41677;SDS011;27364;49.026;8.712;2023-03-24T06:33:53;7.85;;;5.47;;
41677;SDS011;27364;49.026;8.712;2023-03-24T06:36:19;7.55;;;5.50;;
41677;SDS011;27364;49.026;8.712;2023-03-24T06:41:13;6.78;;;5.47;;
41677;SDS011;27364;49.026;8.712;2023-03-24T06:43:38;6.85;;;5.10;;
41677;SDS011;27364;49.026;8.712;2023-03-24T06:46:04;6.57;;;4.95;;
41677;SDS011;27364;49.026;8.712;2023-03-24T06:48:29;6.28;;;4.82;;
41677;SDS011;27364;49.026;8.712;2023-03-24T06:50:55;6.53;;;4.97;;
41677;SDS011;27364;49.026;8.712;2023-03-24T06:53:21;6.47;;;4.80;;
41677;SDS011;27364;49.026;8.712;2023-03-24T06:55:47;5.32;;;4.47;;
41677;SDS011;27364;49.026;8.712;2023-03-24T06:58:13;7.88;;;5.03;;
41677;SDS011;27364;49.026;8.712;2023-03-24T07:00:39;6.22;;;4.70;;
41677;SDS011;27364;49.026;8.712;2023-03-24T07:03:07;5.55;;;4.13;;
41677;SDS011;27364;49.026;8.712;2023-03-24T07:05:39;5.10;;;4.20;;
41677;SDS011;27364;49.026;8.712;2023-03-24T07:08:07;6.70;;;4.40;;
41677;SDS011;27364;49.026;8.712;2023-03-24T07:10:34;8.30;;;4.00;;
41677;SDS011;27364;49.026;8.712;2023-03-24T07:13:00;5.07;;;3.90;;
41677;SDS011;27364;49.026;8.712;2023-03-24T07:15:27;5.25;;;3.78;;
41677;SDS011;27364;49.026;8.712;2023-03-24T07:17:53;5.60;;;3.88;;
41677;SDS011;27364;49.026;8.712;2023-03-24T07:20:19;4.63;;;3.80;;
41677;SDS011;27364;49.026;8.712;2023-03-24T07:22:45;4.50;;;3.63;;
41677;SDS011;27364;49.026;8.712;2023-03-24T07:25:11;5.57;;;4.13;;
41677;SDS011;27364;49.026;8.712;2023-03-24T07:27:38;4.90;;;3.60;;
41677;SDS011;27364;49.026;8.712;2023-03-24T07:30:04;5.50;;;3.78;;
41677;SDS011;27364;49.026;8.712;2023-03-24T07:32:31;5.15;;;3.35;;
41677;SDS011;27364;49.026;8.712;2023-03-24T07:34:59;5.00;;;3.70;;
41677;SDS011;27364;49.026;8.712;2023-03-24T07:37:26;6.05;;;3.80;;
41677;SDS011;27364;49.026;8.712;2023-03-24T07:39:52;4.60;;;3.70;;
41677;SDS011;27364;49.026;8.712;2023-03-24T07:42:18;4.68;;;3.60;;
41677;SDS011;27364;49.026;8.712;2023-03-24T07:44:43;4.47;;;3.33;;
41677;SDS011;27364;49.026;8.712;2023-03-24T07:47:11;4.22;;;3.50;;
41677;SDS011;27364;49.026;8.712;2023-03-24T07:49:36;4.18;;;3.20;;
41677;SDS011;27364;49.026;8.712;2023-03-24T07:52:02;4.22;;;3.10;;
41677;SDS011;27364;49.026;8.712;2023-03-24T07:54:30;5.30;;;3.15;;
41677;SDS011;27364;49.026;8.712;2023-03-24T07:56:57;5.90;;;3.47;;
41677;SDS011;27364;49.026;8.712;2023-03-24T07:59:23;4.35;;;3.25;;
41677;SDS011;27364;49.026;8.712;2023-03-24T08:01:48;5.20;;;2.95;;
41677;SDS011;27364;49.026;8.712;2023-03-24T08:04:14;3.22;;;2.53;;
41677;SDS011;27364;49.026;8.712;2023-03-24T08:06:41;3.92;;;2.50;;
41677;SDS011;27364;49.026;8.712;2023-03-24T08:09:07;3.38;;;2.50;;
41677;SDS011;27364;49.026;8.712;2023-03-24T08:11:33;3.60;;;2.50;;
41677;SDS011;27364;49.026;8.712;2023-03-24T08:14:00;3.67;;;2.42;;
41677;SDS011;27364;49.026;8.712;2023-03-24T08:16:25;2.70;;;1.90;;
41677;SDS011;27364;49.026;8.712;2023-03-24T08:18:51;2.80;;;2.10;;
41677;SDS011;27364;49.026;8.712;2023-03-24T08:21:16;2.83;;;2.10;;
41677;SDS011;27364;49.026;8.712;2023-03-24T08:23:42;3.33;;;1.90;;
41677;SDS011;27364;49.026;8.712;2023-03-24T08:26:08;2.50;;;2.00;;
41677;SDS011;27364;49.026;8.712;2023-03-24T08:28:37;2.97;;;1.95;;
41677;SDS011;27364;49.026;8.712;2023-03-24T08:31:03;4.38;;;2.30;;
41677;SDS011;27364;49.026;8.712;2023-03-24T08:33:29;3.13;;;2.10;;
41677;SDS011;27364;49.026;8.712;2023-03-24T08:35:54;4.53;;;2.85;;
41677;SDS011;27364;49.026;8.712;2023-03-24T08:38:22;4.03;;;2.00;;
41677;SDS011;27364;49.026;8.712;2023-03-24T08:40:55;3.33;;;2.00;;
41677;SDS011;27364;49.026;8.712;2023-03-24T08:43:23;2.60;;;2.00;;
41677;SDS011;27364;49.026;8.712;2023-03-24T08:45:49;2.55;;;1.70;;
41677;SDS011;27364;49.026;8.712;2023-03-24T08:48:15;3.08;;;1.80;;
41677;SDS011;27364;49.026;8.712;2023-03-24T08:50:41;2.85;;;1.80;;
41677;SDS011;27364;49.026;8.712;2023-03-24T08:53:07;3.47;;;1.80;;
41677;SDS011;27364;49.026;8.712;2023-03-24T08:55:35;2.60;;;1.83;;
41677;SDS011;27364;49.026;8.712;2023-03-24T08:58:05;2.83;;;1.80;;
41677;SDS011;27364;49.026;8.712;2023-03-24T09:00:31;2.63;;;1.70;;
41677;SDS011;27364;49.026;8.712;2023-03-24T09:02:57;2.20;;;1.50;;
41677;SDS011;27364;49.026;8.712;2023-03-24T09:05:25;1.83;;;1.40;;
41677;SDS011;27364;49.026;8.712;2023-03-24T09:07:51;2.03;;;1.40;;
41677;SDS011;27364;49.026;8.712;2023-03-24T09:10:18;2.55;;;1.50;;
41677;SDS011;27364;49.026;8.712;2023-03-24T09:15:15;2.40;;;1.60;;
41677;SDS011;27364;49.026;8.712;2023-03-24T09:17:40;2.70;;;1.40;;
41677;SDS011;27364;49.026;8.712;2023-03-24T09:20:07;1.80;;;1.20;;
41677;SDS011;27364;49.026;8.712;2023-03-24T09:22:39;2.42;;;1.70;;
41677;SDS011;27364;49.026;8.712;2023-03-24T09:25:06;2.20;;;1.50;;
41677;SDS011;27364;49.026;8.712;2023-03-24T09:27:33;2.63;;;1.60;;
41677;SDS011;27364;49.026;8.712;2023-03-24T09:29:59;2.67;;;1.60;;
41677;SDS011;27364;49.026;8.712;2023-03-24T09:32:25;2.20;;;1.52;;
41677;SDS011;27364;49.026;8.712;2023-03-24T09:34:50;1.88;;;1.30;;
41677;SDS011;27364;49.026;8.712;2023-03-24T09:37:16;4.90;;;1.92;;
41677;SDS011;27364;49.026;8.712;2023-03-24T09:39:42;2.35;;;1.40;;
41677;SDS011;27364;49.026;8.712;2023-03-24T09:42:19;2.42;;;1.58;;
41677;SDS011;27364;49.026;8.712;2023-03-24T09:44:48;1.95;;;1.35;;
41677;SDS011;27364;49.026;8.712;2023-03-24T09:49:54;2.33;;;1.50;;
41677;SDS011;27364;49.026;8.712;2023-03-24T09:52:26;1.90;;;1.40;;
41677;SDS011;27364;49.026;8.712;2023-03-24T09:54:58;2.47;;;1.40;;
41677;SDS011;27364;49.026;8.712;2023-03-24T09:57:27;2.90;;;1.40;;
41677;SDS011;27364;49.026;8.712;2023-03-24T09:59:58;2.40;;;1.40;;
41677;SDS011;27364;49.026;8.712;2023-03-24T10:02:25;3.35;;;1.40;;
41677;SDS011;27364;49.026;8.712;2023-03-24T10:04:53;2.50;;;1.40;;
41677;SDS011;27364;49.026;8.712;2023-03-24T10:13:20;2.03;;;1.15;;
41677;SDS011;27364;49.026;8.712;2023-03-24T10:16:10;2.05;;;1.27;;
41677;SDS011;27364;49.026;8.712;2023-03-24T10:18:44;1.85;;;1.30;;
41677;SDS011;27364;49.026;8.712;2023-03-24T10:21:53;1.90;;;1.30;;
41677;SDS011;27364;49.026;8.712;2023-03-24T10:24:49;1.83;;;1.20;;
41677;SDS011;27364;49.026;8.712;2023-03-24T10:29:56;2.15;;;1.30;;
41677;SDS011;27364;49.026;8.712;2023-03-24T10:32:31;1.85;;;1.23;;
41677;SDS011;27364;49.026;8.712;2023-03-24T10:35:02;2.05;;;1.17;;
41677;SDS011;27364;49.026;8.712;2023-03-24T10:37:36;3.47;;;1.10;;
41677;SDS011;27364;49.026;8.712;2023-03-24T10:42:36;2.67;;;1.15;;
41677;SDS011;27364;49.026;8.712;2023-03-24T10:45:02;6.22;;;1.52;;
41677;SDS011;27364;49.026;8.712;2023-03-24T10:47:29;2.15;;;1.30;;
41677;SDS011;27364;49.026;8.712;2023-03-24T10:49:57;1.90;;;1.13;;
41677;SDS011;27364;49.026;8.712;2023-03-24T10:52:25;2.22;;;1.20;;
41677;SDS011;27364;49.026;8.712;2023-03-24T10:54:56;1.88;;;1.30;;
41677;SDS011;27364;49.026;8.712;2023-03-24T10:57:27;1.73;;;1.20;;
41677;SDS011;27364;49.026;8.712;2023-03-24T11:02:28;2.08;;;1.20;;
41677;SDS011;27364;49.026;8.712;2023-03-24T11:04:59;1.75;;;1.00;;
41677;SDS011;27364;49.026;8.712;2023-03-24T11:07:43;1.70;;;1.10;;
41677;SDS011;27364;49.026;8.712;2023-03-24T11:15:19;2.25;;;1.20;;
41677;SDS011;27364;49.026;8.712;2023-03-24T11:17:46;2.03;;;1.17;;
41677;SDS011;27364;49.026;8.712;2023-03-24T11:20:24;1.98;;;1.15;;
41677;SDS011;27364;49.026;8.712;2023-03-24T11:25:25;1.63;;;1.20;;
41677;SDS011;27364;49.026;8.712;2023-03-24T11:27:54;1.95;;;1.17;;
41677;SDS011;27364;49.026;8.712;2023-03-24T11:30:27;2.28;;;1.20;;
41677;SDS011;27364;49.026;8.712;2023-03-24T11:32:57;2.55;;;1.10;;
41677;SDS011;27364;49.026;8.712;2023-03-24T11:35:23;2.05;;;1.20;;
41677;SDS011;27364;49.026;8.712;2023-03-24T11:37:49;2.50;;;1.30;;
41677;SDS011;27364;49.026;8.712;2023-03-24T11:40:17;1.23;;;1.02;;
41677;SDS011;27364;49.026;8.712;2023-03-24T11:42:46;2.60;;;1.40;;
41677;SDS011;27364;49.026;8.712;2023-03-24T11:47:57;1.92;;;1.20;;
41677;SDS011;27364;49.026;8.712;2023-03-24T11:50:26;1.90;;;1.30;;
41677;SDS011;27364;49.026;8.712;2023-03-24T11:58:25;2.28;;;1.20;;
41677;SDS011;27364;49.026;8.712;2023-03-24T12:12:24;2.60;;;1.70;;
41677;SDS011;27364;49.026;8.712;2023-03-24T12:17:40;1.98;;;1.00;;
41677;SDS011;27364;49.026;8.712;2023-03-24T12:23:10;4.55;;;1.80;;
41677;SDS011;27364;49.026;8.712;2023-03-24T12:28:29;2.92;;;1.50;;
41677;SDS011;27364;49.026;8.712;2023-03-24T12:34:03;3.65;;;1.50;;
41677;SDS011;27364;49.026;8.712;2023-03-24T12:36:52;5.05;;;2.13;;
41677;SDS011;27364;49.026;8.712;2023-03-24T12:39:29;4.70;;;1.80;;
41677;SDS011;27364;49.026;8.712;2023-03-24T12:56:31;4.93;;;1.50;;
41677;SDS011;27364;49.026;8.712;2023-03-24T12:59:15;4.38;;;1.70;;
41677;SDS011;27364;49.026;8.712;2023-03-24T13:01:50;4.88;;;1.85;;
41677;SDS011;27364;49.026;8.712;2023-03-24T13:04:20;4.55;;;1.63;;
41677;SDS011;27364;49.026;8.712;2023-03-24T13:06:54;3.45;;;1.45;;
41677;SDS011;27364;49.026;8.712;2023-03-24T13:13:11;5.93;;;1.98;;
41677;SDS011;27364;49.026;8.712;2023-03-24T13:15:18;6.32;;;1.90;;
41677;SDS011;27364;49.026;8.712;2023-03-24T13:20:40;4.43;;;1.70;;
41677;SDS011;27364;49.026;8.712;2023-03-24T13:23:20;7.28;;;2.17;;
41677;SDS011;27364;49.026;8.712;2023-03-24T13:28:29;3.83;;;1.60;;
41677;SDS011;27364;49.026;8.712;2023-03-24T13:31:09;4.68;;;1.70;;
41677;SDS011;27364;49.026;8.712;2023-03-24T13:33:36;5.97;;;1.75;;
41677;SDS011;27364;49.026;8.712;2023-03-24T13:39:10;5.05;;;2.00;;
41677;SDS011;27364;49.026;8.712;2023-03-24T13:41:46;5.30;;;1.60;;
41677;SDS011;27364;49.026;8.712;2023-03-24T13:47:02;4.90;;;1.70;;
41677;SDS011;27364;49.026;8.712;2023-03-24T13:49:35;3.80;;;1.58;;
41677;SDS011;27364;49.026;8.712;2023-03-24T13:52:03;4.03;;;1.65;;
41677;SDS011;27364;49.026;8.712;2023-03-24T13:54:32;5.00;;;1.70;;
41677;SDS011;27364;49.026;8.712;2023-03-24T13:57:10;5.10;;;1.67;;
41677;SDS011;27364;49.026;8.712;2023-03-24T13:59:56;4.80;;;1.63;;
41677;SDS011;27364;49.026;8.712;2023-03-24T14:02:48;5.93;;;1.80;;
41677;SDS011;27364;49.026;8.712;2023-03-24T14:07:50;5.55;;;1.80;;
41677;SDS011;27364;49.026;8.712;2023-03-24T14:15:51;5.38;;;2.15;;
41677;SDS011;27364;49.026;8.712;2023-03-24T14:23:22;2.72;;;1.63;;
41677;SDS011;27364;49.026;8.712;2023-03-24T14:25:58;4.22;;;1.73;;
41677;SDS011;27364;49.026;8.712;2023-03-24T14:34:03;3.30;;;1.58;;
41677;SDS011;27364;49.026;8.712;2023-03-24T14:36:35;4.53;;;1.80;;
41677;SDS011;27364;49.026;8.712;2023-03-24T14:39:49;5.55;;;1.60;;
41677;SDS011;27364;49.026;8.712;2023-03-24T14:41:55;5.18;;;2.00;;
41677;SDS011;27364;49.026;8.712;2023-03-24T14:47:14;4.78;;;1.65;;
41677;SDS011;27364;49.026;8.712;2023-03-24T14:49:43;3.72;;;1.50;;
41677;SDS011;27364;49.026;8.712;2023-03-24T14:52:24;3.08;;;1.55;;
41677;SDS011;27364;49.026;8.712;2023-03-24T14:57:37;4.85;;;1.85;;
41677;SDS011;27364;49.026;8.712;2023-03-24T15:02:52;2.40;;;1.30;;
41677;SDS011;27364;49.026;8.712;2023-03-24T15:05:27;2.88;;;1.60;;
41677;SDS011;27364;49.026;8.712;2023-03-24T15:10:49;3.53;;;1.30;;
41677;SDS011;27364;49.026;8.712;2023-03-24T15:18:42;2.70;;;1.30;;
41677;SDS011;27364;49.026;8.712;2023-03-24T15:21:15;2.38;;;1.10;;
41677;SDS011;27364;49.026;8.712;2023-03-24T15:23:51;2.78;;;1.50;;
41677;SDS011;27364;49.026;8.712;2023-03-24T15:26:18;2.65;;;1.40;;
41677;SDS011;27364;49.026;8.712;2023-03-24T15:28:55;2.95;;;1.50;;
41677;SDS011;27364;49.026;8.712;2023-03-24T15:31:23;3.95;;;1.40;;
41677;SDS011;27364;49.026;8.712;2023-03-24T15:33:49;3.53;;;1.70;;
41677;SDS011;27364;49.026;8.712;2023-03-24T15:36:21;1.75;;;1.10;;
41677;SDS011;27364;49.026;8.712;2023-03-24T15:38:48;2.15;;;1.35;;
41677;SDS011;27364;49.026;8.712;2023-03-24T15:41:16;2.33;;;1.27;;
41677;SDS011;27364;49.026;8.712;2023-03-24T15:43:48;2.13;;;1.15;;
41677;SDS011;27364;49.026;8.712;2023-03-24T15:46:21;2.72;;;1.38;;
41677;SDS011;27364;49.026;8.712;2023-03-24T15:48:52;2.50;;;1.27;;
41677;SDS011;27364;49.026;8.712;2023-03-24T15:51:19;3.00;;;1.40;;
41677;SDS011;27364;49.026;8.712;2023-03-24T15:54:14;2.42;;;1.30;;
41677;SDS011;27364;49.026;8.712;2023-03-24T15:57:00;3.95;;;1.33;;
41677;SDS011;27364;49.026;8.712;2023-03-24T15:59:35;2.00;;;1.23;;
41677;SDS011;27364;49.026;8.712;2023-03-24T16:02:06;3.90;;;1.30;;
41677;SDS011;27364;49.026;8.712;2023-03-24T16:04:37;2.72;;;1.30;;
41677;SDS011;27364;49.026;8.712;2023-03-24T16:09:34;2.28;;;1.20;;
41677;SDS011;27364;49.026;8.712;2023-03-24T16:12:07;3.15;;;1.27;;
41677;SDS011;27364;49.026;8.712;2023-03-24T16:14:34;1.88;;;1.15;;
41677;SDS011;27364;49.026;8.712;2023-03-24T16:17:00;1.92;;;1.02;;
41677;SDS011;27364;49.026;8.712;2023-03-24T16:19:29;1.98;;;1.20;;
41677;SDS011;27364;49.026;8.712;2023-03-24T16:21:55;3.80;;;1.40;;
41677;SDS011;27364;49.026;8.712;2023-03-24T16:24:21;5.95;;;1.95;;
41677;SDS011;27364;49.026;8.712;2023-03-24T16:26:47;2.72;;;1.20;;
41677;SDS011;27364;49.026;8.712;2023-03-24T16:29:16;2.22;;;1.15;;
41677;SDS011;27364;49.026;8.712;2023-03-24T16:31:44;2.85;;;1.48;;
41677;SDS011;27364;49.026;8.712;2023-03-24T16:34:13;2.55;;;1.55;;
41677;SDS011;27364;49.026;8.712;2023-03-24T16:36:39;2.88;;;1.40;;
41677;SDS011;27364;49.026;8.712;2023-03-24T16:39:09;2.22;;;1.13;;
41677;SDS011;27364;49.026;8.712;2023-03-24T16:41:42;2.50;;;1.23;;
41677;SDS011;27364;49.026;8.712;2023-03-24T16:44:08;2.45;;;1.23;;
41677;SDS011;27364;49.026;8.712;2023-03-24T16:46:34;1.88;;;1.17;;
41677;SDS011;27364;49.026;8.712;2023-03-24T16:49:02;2.38;;;1.40;;
41677;SDS011;27364;49.026;8.712;2023-03-24T16:51:29;1.83;;;1.20;;
41677;SDS011;27364;49.026;8.712;2023-03-24T16:53:55;4.65;;;1.50;;
41677;SDS011;27364;49.026;8.712;2023-03-24T16:56:21;3.28;;;1.42;;
41677;SDS011;27364;49.026;8.712;2023-03-24T16:58:48;2.80;;;1.33;;
41677;SDS011;27364;49.026;8.712;2023-03-24T17:01:20;2.90;;;1.40;;
41677;SDS011;27364;49.026;8.712;2023-03-24T17:03:53;2.47;;;1.30;;
41677;SDS011;27364;49.026;8.712;2023-03-24T17:06:23;2.22;;;1.33;;
41677;SDS011;27364;49.026;8.712;2023-03-24T17:08:50;2.93;;;1.40;;
41677;SDS011;27364;49.026;8.712;2023-03-24T17:11:16;2.40;;;1.30;;
41677;SDS011;27364;49.026;8.712;2023-03-24T17:13:46;2.55;;;1.38;;
41677;SDS011;27364;49.026;8.712;2023-03-24T17:16:12;2.30;;;1.20;;
41677;SDS011;27364;49.026;8.712;2023-03-24T17:18:39;3.88;;;1.73;;
41677;SDS011;27364;49.026;8.712;2023-03-24T17:21:09;3.80;;;1.50;;
41677;SDS011;27364;49.026;8.712;2023-03-24T17:23:43;2.35;;;1.35;;
41677;SDS011;27364;49.026;8.712;2023-03-24T17:26:11;2.88;;;1.30;;
41677;SDS011;27364;49.026;8.712;2023-03-24T17:28:37;2.70;;;1.48;;
41677;SDS011;27364;49.026;8.712;2023-03-24T17:31:03;2.20;;;1.20;;
41677;SDS011;27364;49.026;8.712;2023-03-24T17:33:28;2.78;;;1.35;;
41677;SDS011;27364;49.026;8.712;2023-03-24T17:35:54;3.38;;;1.60;;
41677;SDS011;27364;49.026;8.712;2023-03-24T17:38:20;2.65;;;1.40;;
41677;SDS011;27364;49.026;8.712;2023-03-24T17:40:45;2.65;;;1.48;;
41677;SDS011;27364;49.026;8.712;2023-03-24T17:43:11;3.13;;;1.55;;
41677;SDS011;27364;49.026;8.712;2023-03-24T17:45:40;2.33;;;1.38;;
41677;SDS011;27364;49.026;8.712;2023-03-24T17:48:08;2.85;;;1.42;;
41677;SDS011;27364;49.026;8.712;2023-03-24T17:52:59;2.40;;;1.48;;
41677;SDS011;27364;49.026;8.712;2023-03-24T17:55:25;3.15;;;1.58;;
41677;SDS011;27364;49.026;8.712;2023-03-24T17:57:51;3.70;;;1.45;;
41677;SDS011;27364;49.026;8.712;2023-03-24T18:00:17;2.80;;;1.50;;
41677;SDS011;27364;49.026;8.712;2023-03-24T18:02:43;5.18;;;1.70;;
41677;SDS011;27364;49.026;8.712;2023-03-24T18:05:09;3.83;;;1.63;;